Rankin, Michigan
Current Conditions -  °F | °C
As of 5:53 PM on Thursday 20 Nov 2014 (Local Time) from KFNT Reporting Station
Clear Clear  
Wind Chill:   Ceiling: Unl
Heat Index: 19°   Visibility: 10mi
Dew Point: 10°   Wind: 14mph
Humidity: 68%   Direction: 270°W
Pressure: 30"   Gusts: NA
Location:  42.9382°N, 83.8244°W
Report Text: KFNT 202253Z 27012KT 10SM CLR M07/M12 A3000 RMK AO2 SNE16 SLP174 P0000 T10721122
Loading
Personal Weather Stations






























Interactive Weather Map New forecast layout! Learn more

10-Day Weather Forecast

Advertisements
Track Severe Weather on mobile